createdAt,value
2022-10-05T00:02:26.625Z,17.50
2022-10-05T00:06:11.393Z,17.50
2022-10-05T00:09:58.872Z,17.50
2022-10-05T00:13:41.608Z,17.50
2022-10-05T00:17:25.698Z,17.50
2022-10-05T00:21:27.697Z,17.60
2022-10-05T00:25:17.869Z,17.50
2022-10-05T00:29:02.233Z,17.50
2022-10-05T00:32:44.921Z,17.60
2022-10-05T00:36:26.873Z,17.60
2022-10-05T00:40:37.370Z,17.60
2022-10-05T00:44:30.818Z,17.50
2022-10-05T00:48:47.610Z,17.50
2022-10-05T00:52:55.081Z,17.60
2022-10-05T00:56:49.054Z,17.60
2022-10-05T01:00:37.061Z,17.60
2022-10-05T01:04:43.904Z,17.60
2022-10-05T01:08:56.998Z,17.50
2022-10-05T01:13:28.186Z,17.50
2022-10-05T01:17:20.651Z,17.50
2022-10-05T01:21:16.793Z,17.50
2022-10-05T01:25:33.942Z,17.50
2022-10-05T01:29:22.807Z,17.50
2022-10-05T01:33:33.906Z,17.50
2022-10-05T01:37:39.305Z,17.50
2022-10-05T01:41:30.027Z,17.50
2022-10-05T01:45:27.058Z,17.50
2022-10-05T01:49:37.222Z,17.50
2022-10-05T01:53:47.863Z,17.50
2022-10-05T01:57:40.676Z,17.50
2022-10-05T02:01:41.708Z,17.50
2022-10-05T02:05:52.399Z,17.50
2022-10-05T02:09:40.877Z,17.50
2022-10-05T02:13:29.532Z,17.50
2022-10-05T02:17:17.936Z,17.50
2022-10-05T02:21:02.380Z,17.50
2022-10-05T02:24:53.129Z,17.50
2022-10-05T02:28:52.666Z,17.50
2022-10-05T02:32:48.026Z,17.50
2022-10-05T02:36:35.412Z,17.60
2022-10-05T02:40:33.967Z,17.50
2022-10-05T02:44:29.262Z,17.50
2022-10-05T02:48:38.577Z,17.50
2022-10-05T02:52:44.694Z,17.50
2022-10-05T02:56:58.754Z,17.60
2022-10-05T03:00:48.138Z,17.50
2022-10-05T03:05:13.606Z,17.50
2022-10-05T03:09:09.602Z,17.50
2022-10-05T03:13:15.668Z,17.50
2022-10-05T03:17:10.884Z,17.50
2022-10-05T03:21:21.395Z,17.50
2022-10-05T03:25:40.842Z,17.50
2022-10-05T03:29:37.651Z,17.50
2022-10-05T03:33:25.639Z,17.50
2022-10-05T03:37:34.811Z,17.50
2022-10-05T03:41:28.538Z,17.50
2022-10-05T03:45:16.225Z,17.50
2022-10-05T03:49:01.216Z,17.50
2022-10-05T03:52:52.278Z,17.50
2022-10-05T03:56:41.331Z,17.50
2022-10-05T04:00:24.252Z,17.50
2022-10-05T04:04:11.558Z,17.50
2022-10-05T04:07:59.787Z,17.50
2022-10-05T04:12:11.960Z,17.50
2022-10-05T04:16:23.134Z,17.50
2022-10-05T04:20:37.282Z,17.50
2022-10-05T04:24:31.071Z,17.50
2022-10-05T04:28:41.820Z,17.50
2022-10-05T04:32:30.384Z,17.50
2022-10-05T04:36:31.974Z,17.40
2022-10-05T04:40:30.524Z,17.40
2022-10-05T04:44:50.013Z,17.40
2022-10-05T04:48:58.755Z,17.30
2022-10-05T04:53:00.689Z,17.30
2022-10-05T04:56:47.751Z,17.30
2022-10-05T05:00:49.142Z,17.30
2022-10-05T05:05:09.549Z,17.20
2022-10-05T05:08:56.934Z,17.10
2022-10-05T05:12:53.427Z,17.10
2022-10-05T05:16:41.850Z,17.00
2022-10-05T05:20:39.893Z,16.90
2022-10-05T05:24:30.831Z,16.90
2022-10-05T05:28:39.193Z,16.80
2022-10-05T05:32:30.099Z,16.80
2022-10-05T05:36:37.981Z,16.80
2022-10-05T05:40:28.341Z,16.80
2022-10-05T05:44:13.270Z,16.70
2022-10-05T05:47:58.833Z,16.60
2022-10-05T05:51:48.569Z,16.60
2022-10-05T05:55:35.696Z,16.50
2022-10-05T05:59:24.762Z,16.50
2022-10-05T06:03:22.480Z,16.50
2022-10-05T06:07:05.868Z,16.50
2022-10-05T06:10:53.077Z,16.50
2022-10-05T06:14:47.228Z,16.50
2022-10-05T06:18:31.900Z,16.60
2022-10-05T06:22:31.955Z,16.60
2022-10-05T06:26:22.645Z,16.70
2022-10-05T06:30:10.198Z,16.80
2022-10-05T06:33:53.806Z,16.90
2022-10-05T06:37:35.628Z,17.00
2022-10-05T06:41:35.914Z,17.00
2022-10-05T06:45:31.350Z,17.10
2022-10-05T06:49:27.660Z,17.10
2022-10-05T06:53:28.108Z,17.20
2022-10-05T06:57:24.759Z,17.20
2022-10-05T07:01:33.565Z,17.30
2022-10-05T07:05:53.645Z,17.40
2022-10-05T07:09:44.399Z,17.40
2022-10-05T07:13:47.395Z,17.30
2022-10-05T07:17:38.732Z,17.20
2022-10-05T07:21:27.347Z,17.20
2022-10-05T07:25:21.065Z,17.30
2022-10-05T07:29:33.742Z,17.40
2022-10-05T07:33:24.298Z,17.50
2022-10-05T07:37:32.549Z,17.50
2022-10-05T07:41:20.185Z,17.60
2022-10-05T07:45:28.140Z,17.60
2022-10-05T07:49:21.959Z,17.70
2022-10-05T07:53:32.881Z,17.80
2022-10-05T07:57:24.143Z,17.90
2022-10-05T08:01:14.832Z,18.00
2022-10-05T08:05:12.041Z,18.00
2022-10-05T08:09:00.698Z,18.00
2022-10-05T08:13:19.659Z,18.10
2022-10-05T08:17:12.756Z,18.20
2022-10-05T08:20:58.840Z,18.20
2022-10-05T08:24:53.561Z,18.20
2022-10-05T08:28:53.650Z,18.20
2022-10-05T08:32:42.415Z,18.30
2022-10-05T08:36:43.734Z,18.40
2022-10-05T08:40:39.448Z,18.50
2022-10-05T08:44:40.844Z,18.50
2022-10-05T08:48:31.988Z,18.50
2022-10-05T08:52:32.502Z,18.50
2022-10-05T08:56:19.740Z,18.70
2022-10-05T09:00:29.393Z,18.70
2022-10-05T09:04:21.479Z,18.60
2022-10-05T09:08:51.398Z,18.60
2022-10-05T09:12:53.481Z,18.50
2022-10-05T09:17:04.680Z,18.50
2022-10-05T09:20:57.688Z,18.40
2022-10-05T09:24:58.165Z,18.30
2022-10-05T09:29:14.264Z,18.10
2022-10-05T09:33:34.043Z,18.00
2022-10-05T09:37:30.158Z,17.70
2022-10-05T09:41:39.432Z,17.50
2022-10-05T09:45:31.592Z,17.30
2022-10-05T09:49:25.557Z,17.10
2022-10-05T09:54:03.750Z,17.00
2022-10-05T09:58:14.571Z,17.00
2022-10-05T10:02:28.403Z,16.80
2022-10-05T10:06:50.157Z,16.80
2022-10-05T10:11:02.401Z,16.80
2022-10-05T10:15:05.897Z,16.70
2022-10-05T10:19:25.540Z,16.60
2022-10-05T10:23:30.733Z,16.60
2022-10-05T10:27:51.641Z,16.60
2022-10-05T10:31:59.980Z,16.60
2022-10-05T10:36:13.399Z,16.60
2022-10-05T10:40:28.818Z,16.50
2022-10-05T10:44:32.404Z,16.50
2022-10-05T10:48:29.289Z,16.50
2022-10-05T10:52:17.372Z,16.50
2022-10-05T10:56:20.983Z,16.60
2022-10-05T11:00:27.579Z,16.50
2022-10-05T11:04:28.456Z,16.60
2022-10-05T11:08:31.104Z,16.70
2022-10-05T11:12:50.924Z,16.80
2022-10-05T11:16:56.690Z,16.80
2022-10-05T11:21:04.965Z,16.80
2022-10-05T11:25:20.803Z,16.60
2022-10-05T11:29:32.575Z,16.50
2022-10-05T11:33:56.135Z,16.40
2022-10-05T11:37:41.048Z,16.40
2022-10-05T11:41:36.969Z,16.30
2022-10-05T11:45:43.731Z,16.20
2022-10-05T11:49:28.549Z,16.20
2022-10-05T11:53:42.807Z,16.10
2022-10-05T11:57:44.887Z,16.10
2022-10-05T12:01:51.866Z,16.10
2022-10-05T12:05:36.611Z,16.10
2022-10-05T12:09:27.891Z,16.10
2022-10-05T12:13:36.941Z,16.10
2022-10-05T12:17:48.814Z,16.00
2022-10-05T12:22:00.400Z,16.00
2022-10-05T12:25:56.500Z,16.00
2022-10-05T12:29:54.385Z,15.90
2022-10-05T12:34:00.820Z,16.00
2022-10-05T12:38:03.459Z,16.00
2022-10-05T12:41:55.395Z,16.00
2022-10-05T12:45:54.116Z,16.00
2022-10-05T12:49:51.838Z,16.10
2022-10-05T12:53:36.702Z,16.20
2022-10-05T12:57:36.358Z,16.40
2022-10-05T13:01:27.157Z,16.50
2022-10-05T13:05:12.411Z,16.60
2022-10-05T13:09:08.784Z,16.60
2022-10-05T13:12:51.114Z,16.70
2022-10-05T13:16:52.516Z,16.60
2022-10-05T13:20:44.526Z,16.50
2022-10-05T13:24:38.559Z,16.40
2022-10-05T13:28:30.635Z,16.30
2022-10-05T13:32:23.359Z,16.30
2022-10-05T13:36:38.710Z,16.20
2022-10-05T13:40:33.983Z,16.20
2022-10-05T13:44:31.143Z,16.20
2022-10-05T13:48:51.871Z,16.30
2022-10-05T13:53:05.387Z,16.40
2022-10-05T13:56:56.106Z,16.50
2022-10-05T14:00:48.803Z,16.40
2022-10-05T14:04:54.764Z,16.50
2022-10-05T14:08:50.435Z,16.50
2022-10-05T14:12:43.120Z,16.70
2022-10-05T14:16:26.622Z,16.90
2022-10-05T14:20:31.990Z,17.00
2022-10-05T14:24:43.535Z,16.90
2022-10-05T14:28:40.069Z,16.80
2022-10-05T14:32:28.874Z,17.00
2022-10-05T14:36:55.903Z,17.00
2022-10-05T14:40:40.680Z,17.20
2022-10-05T14:48:17.531Z,17.10
2022-10-05T14:51:59.894Z,17.00
2022-10-05T14:56:12.656Z,16.80
2022-10-05T14:59:59.588Z,16.70
2022-10-05T15:03:48.962Z,16.70
2022-10-05T15:07:40.441Z,16.70
2022-10-05T15:11:52.658Z,16.70
2022-10-05T15:15:44.597Z,16.70
2022-10-05T15:19:55.933Z,16.70
2022-10-05T15:23:56.155Z,16.70
2022-10-05T15:27:58.616Z,16.80
2022-10-05T15:31:52.101Z,16.80
2022-10-05T15:36:21.498Z,16.90
2022-10-05T15:40:07.736Z,17.00
2022-10-05T15:44:00.978Z,16.90
2022-10-05T15:48:15.042Z,16.90
2022-10-05T15:52:03.438Z,17.00
2022-10-05T15:55:55.862Z,17.00
2022-10-05T15:59:58.266Z,17.00
2022-10-05T16:03:48.789Z,16.90
2022-10-05T16:08:02.856Z,16.80
2022-10-05T16:11:47.927Z,16.60
2022-10-05T16:16:01.109Z,16.40
2022-10-05T16:20:14.371Z,16.30
2022-10-05T16:24:10.896Z,16.30
2022-10-05T16:28:09.599Z,16.30
2022-10-05T16:32:10.410Z,16.20
2022-10-05T16:36:26.451Z,16.30
2022-10-05T16:40:28.501Z,16.30
2022-10-05T16:44:32.301Z,16.30
2022-10-05T16:48:29.059Z,16.20
2022-10-05T16:52:16.189Z,16.10
2022-10-05T16:56:11.703Z,16.00
2022-10-05T17:00:15.765Z,16.00
2022-10-05T17:04:03.952Z,15.80
2022-10-05T17:07:58.706Z,15.80
2022-10-05T17:11:46.839Z,15.60
2022-10-05T17:16:10.066Z,15.60
2022-10-05T17:20:23.746Z,15.50
2022-10-05T17:24:11.688Z,15.40
2022-10-05T17:28:37.051Z,15.30
2022-10-05T17:32:19.011Z,15.30
2022-10-05T17:36:09.172Z,15.20
2022-10-05T17:39:54.183Z,15.10
2022-10-05T17:43:36.304Z,15.00
2022-10-05T17:47:56.744Z,14.90
2022-10-05T17:51:57.262Z,14.90
2022-10-05T17:55:46.405Z,14.80
2022-10-05T17:59:46.436Z,14.60
2022-10-05T18:03:41.539Z,14.50
2022-10-05T18:07:24.783Z,14.50
2022-10-05T18:11:17.270Z,14.50
2022-10-05T18:15:14.405Z,14.40
2022-10-05T18:18:57.931Z,14.30
2022-10-05T18:22:39.880Z,14.20
2022-10-05T18:26:48.092Z,14.20
2022-10-05T18:31:04.832Z,14.20
2022-10-05T18:35:11.542Z,14.10
2022-10-05T18:39:29.097Z,14.00
2022-10-05T18:43:26.751Z,14.00
2022-10-05T18:47:30.489Z,14.00
2022-10-05T18:51:36.743Z,14.00
2022-10-05T18:55:33.963Z,13.90
2022-10-05T18:59:38.578Z,13.90
2022-10-05T19:03:42.245Z,13.80
2022-10-05T19:07:50.817Z,13.70
2022-10-05T19:11:43.515Z,13.70
2022-10-05T19:15:46.565Z,13.60
2022-10-05T19:19:33.591Z,13.60
2022-10-05T19:23:45.069Z,13.50
2022-10-05T19:27:44.594Z,13.50
2022-10-05T19:31:35.344Z,13.50
2022-10-05T19:35:23.495Z,13.50
2022-10-05T19:39:33.722Z,13.50
2022-10-05T19:43:24.751Z,13.40
2022-10-05T19:47:26.031Z,13.40
2022-10-05T19:51:59.286Z,13.40
2022-10-05T19:55:43.876Z,13.50
2022-10-05T19:59:31.154Z,13.50
2022-10-05T20:03:19.555Z,13.50
2022-10-05T20:07:02.500Z,13.40
2022-10-05T20:10:45.994Z,13.30
2022-10-05T20:14:33.444Z,13.20
2022-10-05T20:19:02.278Z,13.20
2022-10-05T20:22:46.624Z,13.10
2022-10-05T20:26:57.161Z,13.30
2022-10-05T20:30:39.085Z,13.20
2022-10-05T20:34:24.830Z,13.10
2022-10-05T20:38:09.877Z,13.00
2022-10-05T20:41:51.900Z,13.00
2022-10-05T20:45:33.942Z,12.80
2022-10-05T20:49:15.948Z,12.70
2022-10-05T20:52:58.261Z,12.60
2022-10-05T20:56:42.333Z,12.60
2022-10-05T21:00:24.463Z,12.70
2022-10-05T21:04:07.413Z,12.70
2022-10-05T21:07:49.420Z,12.80
2022-10-05T21:11:31.355Z,12.80
2022-10-05T21:15:13.261Z,12.80
2022-10-05T21:18:55.169Z,12.80
2022-10-05T21:22:37.005Z,12.70
2022-10-05T21:26:19.176Z,12.70
2022-10-05T21:30:01.621Z,12.60
2022-10-05T21:33:43.795Z,12.50
2022-10-05T21:37:25.801Z,12.50
2022-10-05T21:41:08.422Z,12.50
2022-10-05T21:44:50.316Z,12.40
2022-10-05T21:48:33.780Z,12.40
2022-10-05T21:52:15.676Z,12.30
2022-10-05T21:56:02.174Z,12.30
2022-10-05T21:59:45.228Z,12.30
2022-10-05T22:03:27.459Z,12.20
2022-10-05T22:07:19.871Z,12.20
2022-10-05T22:11:10.360Z,12.20
2022-10-05T22:14:52.416Z,12.20
2022-10-05T22:18:34.342Z,12.20
2022-10-05T22:22:17.029Z,12.20
2022-10-05T22:25:59.040Z,12.10
2022-10-05T22:29:41.764Z,12.10
2022-10-05T22:33:23.792Z,12.00
2022-10-05T22:37:07.120Z,12.00
2022-10-05T22:40:49.130Z,11.90
2022-10-05T22:44:31.385Z,11.80
2022-10-05T22:48:13.725Z,11.70
2022-10-05T22:51:55.678Z,11.70
2022-10-05T22:55:37.636Z,11.70
2022-10-05T22:59:19.578Z,11.60
2022-10-05T23:03:01.872Z,11.60
2022-10-05T23:06:44.048Z,11.60
2022-10-05T23:10:26.251Z,11.60
2022-10-05T23:14:08.469Z,11.60
2022-10-05T23:17:52.924Z,11.70
2022-10-05T23:21:34.891Z,11.70
2022-10-05T23:25:17.985Z,11.60
2022-10-05T23:29:00.106Z,11.70
2022-10-05T23:32:44.462Z,11.60
2022-10-05T23:36:31.587Z,11.60
2022-10-05T23:40:14.924Z,11.70
2022-10-05T23:43:56.986Z,11.80
2022-10-05T23:47:40.624Z,11.70
2022-10-05T23:51:22.557Z,11.60
2022-10-05T23:55:05.763Z,11.60
2022-10-05T23:58:47.763Z,11.50
